Mokpo, South Korea

7:30 PM KST on July 23, 2016 (GMT +0900)
Muan International Airpor | | Change Station

Elev 7 ft 34.99 °N, 126.38 °E | Updated 30 minutes ago

Scattered Clouds
Scattered Clouds
86 °F
Feels Like 97 °F
N
7
Wind Variable Wind from South

Today
High -- | Low -- °F
--% Chance of Precip.
Yesterday
High -- | Low -- °F
Precip. -- in
Pressure 29.77 in
Visibility 6.2 miles
Clouds Few 3000 ft
Scattered Clouds 18000 ft
Heat Index 97 °F
Dew Point 77 °F
Humidity 74%
Rainfall 0.00 in
Snow Depth Not available.
5:37 AM 7:43 PM
Waning Gibbous, 86% visible
METAR RKJB 231000Z 19006KT 9999 FEW030 SCT180 30/25 Q1008 NOSIG
Pressure 29.77 in
Visibility 6.2 miles
Clouds Few 3000 ft
Scattered Clouds 18000 ft
Heat Index 97 °F
Dew Point 77 °F
Humidity 74%
Rainfall 0.00 in
Snow Depth Not available.
5:37 AM 7:43 PM
Waning Gibbous, 86% visible
METAR RKJB 231000Z 19006KT 9999 FEW030 SCT180 30/25 Q1008 NOSIG

10-Day Weather Forecast

No radar image for this location.
×

Almanac

Astronomy

Jul. 23, 2016 Rise Set
Actual Time
Civil Twilight
Nautical Twilight
Astronomical Twilight
Moon
Length of Visible Light
Length of Day
Tomorrow will be .
, % of the Moon is Illuminated

Today's Extremes

Country Highs Country Lows

Community

WunderPhotos

Upload Photos

1,926,791 photos uploaded!

WunderBlog® & News

Nearby

Air Quality

  Air Quality AQ Index Pollutant
Not available.

Snow Depth

Station Depth Elevation

Earthquake Activity

City Distance Mag. Time & Date
Minimum magnitude displayed is 2.5.

Coastal Water Temperatures

Place Temperature

Stations

Nearby Weather Stations

Station Location Temp. Windchill Dew Point Humidity Wind Precip. Elev Updated Type